createdAt,value
2022-10-30T00:02:11.728Z,11.51
2022-10-30T00:04:39.476Z,11.53
2022-10-30T00:07:07.136Z,11.66
2022-10-30T00:09:53.094Z,11.63
2022-10-30T00:12:20.974Z,11.64
2022-10-30T00:14:48.649Z,11.71
2022-10-30T00:17:16.567Z,11.66
2022-10-30T00:19:44.252Z,11.66
2022-10-30T00:22:11.993Z,11.63
2022-10-30T00:24:39.947Z,11.64
2022-10-30T00:27:08.157Z,11.63
2022-10-30T00:29:35.977Z,11.66
2022-10-30T00:32:04.091Z,11.60
2022-10-30T00:34:31.922Z,11.64
2022-10-30T00:36:59.698Z,11.60
2022-10-30T00:39:27.975Z,11.63
2022-10-30T00:42:16.181Z,11.67
2022-10-30T00:45:02.380Z,11.65
2022-10-30T00:47:36.040Z,11.64
2022-10-30T00:50:15.768Z,11.72
2022-10-30T00:53:10.018Z,11.73
2022-10-30T00:56:02.431Z,11.78
2022-10-30T00:58:39.061Z,11.74
2022-10-30T01:01:28.872Z,11.93
2022-10-30T01:04:17.190Z,12.05
2022-10-30T01:06:52.132Z,12.07
2022-10-30T01:09:20.143Z,11.96
2022-10-30T01:12:07.573Z,11.96
2022-10-30T01:14:39.395Z,11.92
2022-10-30T01:17:27.193Z,11.96
2022-10-30T01:20:18.470Z,12.13
2022-10-30T01:22:58.625Z,12.33
2022-10-30T01:25:38.881Z,12.26
2022-10-30T01:28:26.590Z,12.31
2022-10-30T01:31:51.222Z,12.16
2022-10-30T01:35:17.310Z,12.09
2022-10-30T01:38:26.661Z,12.11
2022-10-30T01:40:55.263Z,12.08
2022-10-30T01:43:43.913Z,12.10
2022-10-30T01:46:35.974Z,12.18
2022-10-30T01:49:27.929Z,12.06
2022-10-30T01:52:06.381Z,12.01
2022-10-30T01:55:13.789Z,11.94
2022-10-30T01:58:49.718Z,11.97
2022-10-30T02:01:39.977Z,12.02
2022-10-30T02:04:12.550Z,11.96
2022-10-30T02:06:58.953Z,11.99
2022-10-30T02:09:27.302Z,11.94
2022-10-30T02:12:13.848Z,12.01
2022-10-30T02:14:47.935Z,12.12
2022-10-30T02:17:34.391Z,12.27
2022-10-30T02:20:02.366Z,12.32
2022-10-30T02:22:31.362Z,12.28
2022-10-30T02:25:17.897Z,12.28
2022-10-30T02:27:45.811Z,12.19
2022-10-30T02:30:13.922Z,12.13
2022-10-30T02:32:42.434Z,12.10
2022-10-30T02:35:10.651Z,12.08
2022-10-30T02:37:39.658Z,12.12
2022-10-30T02:40:08.700Z,12.02
2022-10-30T02:42:37.114Z,12.01
2022-10-30T02:45:05.183Z,12.06
2022-10-30T02:47:33.974Z,12.01
2022-10-30T02:50:01.972Z,11.96
2022-10-30T02:52:29.813Z,12.05
2022-10-30T02:55:15.907Z,12.12
2022-10-30T02:58:02.028Z,12.10
2022-10-30T03:00:50.100Z,12.08
2022-10-30T03:03:21.430Z,12.19
2022-10-30T03:05:51.907Z,12.25
2022-10-30T03:08:19.877Z,12.10
2022-10-30T03:10:47.570Z,11.99
2022-10-30T03:13:15.564Z,12.01
2022-10-30T03:15:43.495Z,11.89
2022-10-30T03:18:13.414Z,11.82
2022-10-30T03:20:42.302Z,11.71
2022-10-30T03:23:28.974Z,11.55
2022-10-30T03:25:59.108Z,11.49
2022-10-30T03:28:30.010Z,11.62
2022-10-30T03:31:07.028Z,11.55
2022-10-30T03:33:36.558Z,11.49
2022-10-30T03:36:06.641Z,11.63
2022-10-30T03:38:34.803Z,11.60
2022-10-30T03:41:03.938Z,11.59
2022-10-30T03:43:50.656Z,11.47
2022-10-30T03:46:18.599Z,11.41
2022-10-30T03:48:50.659Z,11.52
2022-10-30T03:51:18.681Z,11.62
2022-10-30T03:53:48.400Z,11.63
2022-10-30T03:56:16.258Z,11.63
2022-10-30T03:58:48.590Z,11.66
2022-10-30T04:01:39.446Z,11.73
2022-10-30T04:04:07.740Z,11.69
2022-10-30T04:06:53.851Z,11.66
2022-10-30T04:09:23.076Z,11.65
2022-10-30T04:11:50.869Z,11.78
2022-10-30T04:14:18.718Z,11.66
2022-10-30T04:16:46.636Z,11.71
2022-10-30T04:19:14.432Z,11.72
2022-10-30T04:21:43.773Z,11.69
2022-10-30T04:24:16.150Z,11.76
2022-10-30T04:26:46.003Z,11.84
2022-10-30T04:29:14.561Z,11.83
2022-10-30T04:31:42.941Z,11.83
2022-10-30T04:34:29.114Z,11.93
2022-10-30T04:37:15.134Z,11.98
2022-10-30T04:40:02.843Z,12.01
2022-10-30T04:42:37.522Z,11.91
2022-10-30T04:45:24.169Z,12.02
2022-10-30T04:47:52.836Z,12.15
2022-10-30T04:50:20.726Z,12.11
2022-10-30T04:52:48.558Z,12.05
2022-10-30T04:55:16.728Z,12.06
2022-10-30T04:57:45.117Z,12.00
2022-10-30T05:00:32.267Z,12.11
2022-10-30T05:03:16.697Z,12.05
2022-10-30T05:05:44.660Z,12.03
2022-10-30T05:08:13.611Z,12.15
2022-10-30T05:10:41.652Z,12.06
2022-10-30T05:13:12.418Z,12.08
2022-10-30T05:15:40.537Z,12.05
2022-10-30T05:18:09.435Z,12.13
2022-10-30T05:20:37.505Z,12.13
2022-10-30T05:23:23.842Z,12.24
2022-10-30T05:25:51.991Z,12.30
2022-10-30T05:28:21.113Z,12.28
2022-10-30T05:30:57.117Z,12.19
2022-10-30T05:33:45.178Z,12.09
2022-10-30T05:36:14.442Z,12.01
2022-10-30T05:38:43.012Z,12.05
2022-10-30T05:41:18.508Z,12.02
2022-10-30T05:44:05.019Z,12.00
2022-10-30T05:46:34.325Z,12.00
2022-10-30T05:49:37.217Z,12.00
2022-10-30T05:52:10.392Z,12.11
2022-10-30T05:54:38.783Z,12.15
2022-10-30T05:57:33.791Z,12.35
2022-10-30T06:00:02.649Z,12.35
2022-10-30T06:02:32.923Z,12.39
2022-10-30T06:05:01.086Z,12.45
2022-10-30T06:07:28.999Z,12.55
2022-10-30T06:09:56.810Z,12.76
2022-10-30T06:12:37.446Z,12.76
2022-10-30T06:15:26.413Z,12.82
2022-10-30T06:18:12.861Z,12.96
2022-10-30T06:20:44.089Z,12.98
2022-10-30T06:23:30.403Z,13.02
2022-10-30T06:26:25.850Z,13.05
2022-10-30T06:28:57.473Z,13.08
2022-10-30T06:31:27.047Z,13.17
2022-10-30T06:33:55.087Z,13.21
2022-10-30T06:36:23.024Z,13.32
2022-10-30T06:38:50.906Z,13.32
2022-10-30T06:41:24.642Z,13.46
2022-10-30T06:44:35.084Z,13.51
2022-10-30T06:47:03.162Z,13.55
2022-10-30T06:49:33.834Z,13.61
2022-10-30T06:52:01.600Z,13.70
2022-10-30T06:54:29.736Z,13.78
2022-10-30T06:57:04.638Z,13.80
2022-10-30T06:59:50.901Z,13.79
2022-10-30T07:02:35.833Z,13.89
2022-10-30T07:05:08.455Z,13.95
2022-10-30T07:07:36.909Z,14.06
2022-10-30T07:10:22.979Z,14.14
2022-10-30T07:13:29.087Z,14.46
2022-10-30T07:16:03.117Z,14.61
2022-10-30T07:18:41.357Z,14.76
2022-10-30T07:21:09.128Z,14.81
2022-10-30T07:23:37.760Z,14.87
2022-10-30T07:26:38.207Z,14.94
2022-10-30T07:29:27.612Z,15.08
2022-10-30T07:32:14.294Z,15.13
2022-10-30T07:34:50.905Z,15.12
2022-10-30T07:37:21.392Z,15.13
2022-10-30T07:40:12.542Z,15.06
2022-10-30T07:43:07.258Z,15.09
2022-10-30T07:46:01.373Z,15.11
2022-10-30T07:48:31.704Z,15.12
2022-10-30T07:51:16.381Z,15.13
2022-10-30T07:54:02.840Z,15.17
2022-10-30T07:56:30.924Z,15.18
2022-10-30T07:59:18.908Z,15.35
2022-10-30T08:02:02.695Z,15.44
2022-10-30T08:04:43.857Z,15.52
2022-10-30T08:07:33.093Z,15.60
2022-10-30T08:10:00.907Z,15.63
2022-10-30T08:12:29.254Z,15.75
2022-10-30T08:14:57.435Z,15.80
2022-10-30T08:17:25.450Z,16.09
2022-10-30T08:19:53.561Z,16.79
2022-10-30T08:22:21.552Z,17.74
2022-10-30T08:24:58.200Z,18.83
2022-10-30T08:28:00.912Z,20.10
2022-10-30T08:30:35.471Z,20.77
2022-10-30T08:33:07.433Z,20.62
2022-10-30T08:36:31.935Z,21.64
2022-10-30T08:39:19.075Z,22.17
2022-10-30T08:41:56.792Z,22.23
2022-10-30T08:44:24.546Z,22.10
2022-10-30T08:47:31.307Z,21.91
2022-10-30T08:49:59.271Z,21.38
2022-10-30T08:52:31.305Z,20.69
2022-10-30T08:55:17.602Z,20.85
2022-10-30T08:57:46.264Z,21.76
2022-10-30T09:00:14.485Z,22.86
2022-10-30T09:03:02.220Z,22.40
2022-10-30T09:05:51.073Z,21.87
2022-10-30T09:08:37.180Z,21.99
2022-10-30T09:11:25.543Z,21.77
2022-10-30T09:13:54.126Z,22.30
2022-10-30T09:16:41.013Z,23.17
2022-10-30T09:19:28.915Z,22.73
2022-10-30T09:21:59.300Z,22.86
2022-10-30T09:24:27.526Z,23.35
2022-10-30T09:26:56.114Z,23.79
2022-10-30T09:29:25.936Z,22.60
2022-10-30T09:32:10.687Z,22.04
2022-10-30T09:34:49.839Z,21.53
2022-10-30T09:37:42.669Z,21.03
2022-10-30T09:40:31.945Z,20.82
2022-10-30T09:43:22.275Z,20.71
2022-10-30T09:46:30.396Z,20.99
2022-10-30T09:51:53.601Z,21.51
2022-10-30T09:55:09.296Z,22.71
2022-10-30T09:57:55.680Z,22.37
2022-10-30T10:00:52.937Z,21.83
2022-10-30T10:03:56.815Z,21.09
2022-10-30T10:06:48.789Z,20.63
2022-10-30T10:09:38.714Z,20.46
2022-10-30T10:12:43.715Z,20.17
2022-10-30T10:15:34.049Z,20.17
2022-10-30T10:18:06.208Z,20.10
2022-10-30T10:20:41.444Z,19.81
2022-10-30T10:23:26.376Z,19.66
2022-10-30T10:25:55.179Z,19.72
2022-10-30T10:28:36.847Z,19.67
2022-10-30T10:31:29.103Z,19.42
2022-10-30T10:34:22.037Z,19.69
2022-10-30T10:37:06.919Z,19.77
2022-10-30T10:39:56.298Z,19.70
2022-10-30T10:42:23.901Z,19.69
2022-10-30T10:45:19.986Z,19.76
2022-10-30T10:51:41.977Z,19.58
2022-10-30T10:54:28.335Z,19.39
2022-10-30T10:56:56.848Z,19.17
2022-10-30T10:59:39.283Z,18.94
2022-10-30T11:02:09.860Z,18.80
2022-10-30T11:04:43.524Z,18.74
2022-10-30T11:07:33.782Z,18.80
2022-10-30T11:10:21.460Z,18.63
2022-10-30T11:12:49.832Z,18.77
2022-10-30T11:15:47.695Z,18.61
2022-10-30T11:18:35.067Z,18.55
2022-10-30T11:21:08.608Z,18.46
2022-10-30T11:23:49.722Z,18.28
2022-10-30T11:26:20.599Z,18.26
2022-10-30T11:28:56.480Z,18.21
2022-10-30T11:31:38.144Z,18.21
2022-10-30T11:34:20.441Z,18.32
2022-10-30T11:36:50.333Z,17.92
2022-10-30T11:39:30.114Z,17.80
2022-10-30T11:42:04.362Z,17.77
2022-10-30T11:44:39.296Z,17.84
2022-10-30T11:47:09.264Z,17.94
2022-10-30T11:50:04.748Z,17.92
2022-10-30T11:52:58.380Z,18.05
2022-10-30T11:55:37.957Z,18.20
2022-10-30T11:58:09.940Z,18.15
2022-10-30T12:00:40.970Z,17.95
2022-10-30T12:03:34.968Z,18.04
2022-10-30T12:06:09.140Z,17.96
2022-10-30T12:08:37.337Z,17.87
2022-10-30T12:11:06.849Z,17.97
2022-10-30T12:13:40.025Z,18.07
2022-10-30T12:16:16.764Z,18.05
2022-10-30T12:19:07.179Z,17.95
2022-10-30T12:21:43.497Z,17.90
2022-10-30T12:24:30.500Z,18.03
2022-10-30T12:27:03.330Z,17.89
2022-10-30T12:30:08.029Z,17.70
2022-10-30T12:32:45.745Z,17.31
2022-10-30T12:35:44.599Z,17.05
2022-10-30T12:38:34.909Z,16.80
2022-10-30T12:41:38.474Z,16.63
2022-10-30T12:44:13.407Z,16.55
2022-10-30T12:47:29.793Z,16.46
2022-10-30T12:50:16.194Z,16.48
2022-10-30T12:52:53.885Z,16.58
2022-10-30T12:55:47.956Z,16.56
2022-10-30T12:58:44.396Z,16.65
2022-10-30T13:01:42.531Z,16.36
2022-10-30T13:04:17.938Z,16.20
2022-10-30T13:07:06.143Z,16.17
2022-10-30T13:09:49.866Z,16.11
2022-10-30T13:12:39.608Z,16.11
2022-10-30T13:15:24.334Z,15.99
2022-10-30T13:17:52.249Z,15.86
2022-10-30T13:20:21.907Z,15.82
2022-10-30T13:23:12.947Z,15.70
2022-10-30T13:26:36.230Z,15.64
2022-10-30T13:29:22.311Z,15.68
2022-10-30T13:32:21.073Z,15.74
2022-10-30T13:35:12.195Z,15.77
2022-10-30T13:37:44.144Z,15.69
2022-10-30T13:40:36.009Z,15.75
2022-10-30T13:43:40.132Z,15.79
2022-10-30T13:46:27.664Z,15.69
2022-10-30T13:49:28.926Z,15.60
2022-10-30T13:52:17.718Z,15.62
2022-10-30T13:55:14.643Z,15.50
2022-10-30T13:58:15.853Z,15.49
2022-10-30T14:01:09.672Z,15.50
2022-10-30T14:04:36.594Z,15.64
2022-10-30T14:07:33.999Z,15.58
2022-10-30T14:10:16.655Z,15.58
2022-10-30T14:13:05.200Z,15.51
2022-10-30T14:15:55.626Z,15.38
2022-10-30T14:18:58.926Z,15.37
2022-10-30T14:21:43.419Z,15.38
2022-10-30T14:24:34.731Z,15.21
2022-10-30T14:27:05.778Z,15.11
2022-10-30T14:29:42.312Z,15.05
2022-10-30T14:32:15.708Z,14.95
2022-10-30T14:35:02.168Z,14.86
2022-10-30T14:37:48.317Z,14.76
2022-10-30T14:40:52.905Z,14.71
2022-10-30T14:43:55.613Z,14.57
2022-10-30T14:47:01.919Z,14.40
2022-10-30T14:49:29.917Z,14.33
2022-10-30T14:52:20.812Z,14.37
2022-10-30T14:55:16.658Z,14.23
2022-10-30T14:57:51.777Z,14.13
2022-10-30T15:00:25.955Z,14.08
2022-10-30T15:03:20.412Z,13.96
2022-10-30T15:05:54.563Z,13.88
2022-10-30T15:08:54.442Z,13.76
2022-10-30T15:11:27.822Z,13.67
2022-10-30T15:14:40.693Z,13.60
2022-10-30T15:17:30.528Z,13.57
2022-10-30T15:20:01.232Z,13.54
2022-10-30T15:22:52.686Z,13.41
2022-10-30T15:25:23.728Z,13.30
2022-10-30T15:28:17.194Z,13.19
2022-10-30T15:31:21.440Z,13.12
2022-10-30T15:33:49.307Z,13.16
2022-10-30T15:36:26.586Z,13.16
2022-10-30T15:39:06.075Z,13.10
2022-10-30T15:41:44.065Z,13.11
2022-10-30T15:46:50.955Z,13.16
2022-10-30T15:49:35.133Z,13.05
2022-10-30T15:52:12.166Z,12.98
2022-10-30T15:55:02.694Z,12.92
2022-10-30T15:58:02.289Z,12.86
2022-10-30T16:00:37.199Z,12.89
2022-10-30T16:03:23.717Z,12.98
2022-10-30T16:05:52.022Z,12.82
2022-10-30T16:08:24.711Z,12.77
2022-10-30T16:10:56.297Z,12.64
2022-10-30T16:13:28.822Z,12.55
2022-10-30T16:15:57.195Z,12.46
2022-10-30T16:18:30.532Z,12.43
2022-10-30T16:21:05.536Z,12.42
2022-10-30T16:23:54.236Z,12.40
2022-10-30T16:26:35.163Z,12.46
2022-10-30T16:29:21.205Z,12.52
2022-10-30T16:32:14.893Z,12.63
2022-10-30T16:34:44.183Z,12.58
2022-10-30T16:37:34.537Z,12.70
2022-10-30T16:40:16.911Z,12.78
2022-10-30T16:43:03.323Z,12.93
2022-10-30T16:45:34.269Z,12.77
2022-10-30T16:48:13.608Z,12.96
2022-10-30T16:50:41.617Z,13.20
2022-10-30T16:53:22.438Z,12.99
2022-10-30T16:55:51.950Z,12.81
2022-10-30T16:58:21.040Z,12.75
2022-10-30T17:00:52.411Z,12.65
2022-10-30T17:03:25.095Z,12.38
2022-10-30T17:06:08.367Z,12.19
2022-10-30T17:08:43.412Z,12.00
2022-10-30T17:11:20.886Z,11.88
2022-10-30T17:13:59.924Z,11.80
2022-10-30T17:16:33.043Z,11.78
2022-10-30T17:19:31.655Z,11.71
2022-10-30T17:22:07.976Z,11.71
2022-10-30T17:24:38.384Z,11.68
2022-10-30T17:27:25.292Z,11.59
2022-10-30T17:29:53.874Z,11.51
2022-10-30T17:32:27.379Z,11.54
2022-10-30T17:35:15.556Z,11.52
2022-10-30T17:37:43.679Z,11.47
2022-10-30T17:40:12.598Z,11.49
2022-10-30T17:42:41.182Z,11.51
2022-10-30T17:45:27.357Z,11.36
2022-10-30T17:47:55.332Z,11.23
2022-10-30T17:50:23.077Z,11.19
2022-10-30T17:52:50.948Z,11.15
2022-10-30T17:55:38.767Z,11.21
2022-10-30T17:58:06.752Z,11.25
2022-10-30T18:00:34.443Z,11.24
2022-10-30T18:03:02.813Z,11.22
2022-10-30T18:05:33.766Z,11.21
2022-10-30T18:08:20.118Z,11.23
2022-10-30T18:10:48.147Z,11.21
2022-10-30T18:13:16.057Z,11.21
2022-10-30T18:16:02.100Z,11.19
2022-10-30T18:18:30.048Z,11.30
2022-10-30T18:21:24.099Z,11.35
2022-10-30T18:23:53.475Z,11.37
2022-10-30T18:26:24.101Z,11.42
2022-10-30T18:29:11.451Z,11.38
2022-10-30T18:31:40.522Z,11.34
2022-10-30T18:34:16.316Z,11.32
2022-10-30T18:36:44.916Z,11.36
2022-10-30T18:39:13.392Z,11.39
2022-10-30T18:41:46.301Z,11.31
2022-10-30T18:44:32.636Z,11.20
2022-10-30T18:47:03.214Z,11.20
2022-10-30T18:49:33.359Z,11.24
2022-10-30T18:52:01.464Z,11.21
2022-10-30T18:54:29.165Z,11.19
2022-10-30T18:56:57.097Z,11.15
2022-10-30T18:59:24.788Z,11.17
2022-10-30T19:01:53.612Z,11.16
2022-10-30T19:04:22.557Z,11.13
2022-10-30T19:06:51.141Z,11.07
2022-10-30T19:09:18.814Z,11.07
2022-10-30T19:11:46.738Z,11.10
2022-10-30T19:14:16.020Z,11.04
2022-10-30T19:17:02.393Z,10.95
2022-10-30T19:19:30.220Z,10.92
2022-10-30T19:22:16.740Z,10.86
2022-10-30T19:25:16.116Z,10.86
2022-10-30T19:27:44.116Z,10.96
2022-10-30T19:30:12.871Z,10.97
2022-10-30T19:32:40.946Z,10.96
2022-10-30T19:35:28.248Z,10.93
2022-10-30T19:37:56.933Z,10.83
2022-10-30T19:40:34.753Z,10.88
2022-10-30T19:43:03.102Z,10.89
2022-10-30T19:45:32.199Z,10.90
2022-10-30T19:48:02.043Z,10.85
2022-10-30T19:50:30.032Z,10.81
2022-10-30T19:53:02.250Z,10.82
2022-10-30T19:55:32.038Z,10.80
2022-10-30T19:58:01.170Z,10.75
2022-10-30T20:00:47.775Z,10.72
2022-10-30T20:03:33.929Z,10.57
2022-10-30T20:06:01.864Z,10.50
2022-10-30T20:08:30.045Z,10.46
2022-10-30T20:11:02.219Z,10.44
2022-10-30T20:13:50.758Z,10.45
2022-10-30T20:16:40.908Z,10.45
2022-10-30T20:19:28.170Z,10.47
2022-10-30T20:21:56.188Z,10.52
2022-10-30T20:24:24.547Z,10.43
2022-10-30T20:27:10.881Z,10.36
2022-10-30T20:29:42.313Z,10.36
2022-10-30T20:32:10.622Z,10.30
2022-10-30T20:34:56.824Z,10.14
2022-10-30T20:37:24.950Z,10.06
2022-10-30T20:39:52.611Z,9.94
2022-10-30T20:42:22.547Z,9.85
2022-10-30T20:44:50.615Z,9.75
2022-10-30T20:47:18.509Z,9.66
2022-10-30T20:49:46.449Z,9.56
2022-10-30T20:52:14.151Z,9.47
2022-10-30T20:54:42.249Z,9.41
2022-10-30T20:57:09.954Z,9.33
2022-10-30T20:59:37.695Z,9.31
2022-10-30T21:02:05.729Z,9.26
2022-10-30T21:04:33.693Z,9.23
2022-10-30T21:07:01.422Z,9.22
2022-10-30T21:09:47.509Z,9.14
2022-10-30T21:12:15.380Z,9.12
2022-10-30T21:14:43.106Z,9.10
2022-10-30T21:17:10.861Z,9.04
2022-10-30T21:19:39.297Z,8.99
2022-10-30T21:22:07.017Z,8.95
2022-10-30T21:24:34.732Z,8.88
2022-10-30T21:27:02.586Z,8.86
2022-10-30T21:29:48.682Z,8.80
2022-10-30T21:32:16.596Z,8.81
2022-10-30T21:35:02.986Z,8.74
2022-10-30T21:37:49.070Z,8.70
2022-10-30T21:40:17.107Z,8.66
2022-10-30T21:42:47.404Z,8.68
2022-10-30T21:45:33.439Z,8.61
2022-10-30T21:48:01.310Z,8.53
2022-10-30T21:50:47.757Z,8.59
2022-10-30T21:53:15.618Z,8.55
2022-10-30T21:55:43.395Z,8.56
2022-10-30T21:58:11.066Z,8.46
2022-10-30T22:00:38.923Z,8.40
2022-10-30T22:03:06.557Z,8.29
2022-10-30T22:05:34.257Z,8.30
2022-10-30T22:08:02.371Z,8.28
2022-10-30T22:10:30.201Z,8.26
2022-10-30T22:12:57.947Z,8.21
2022-10-30T22:15:44.062Z,8.22
2022-10-30T22:18:12.039Z,8.14
2022-10-30T22:20:39.683Z,8.12
2022-10-30T22:23:07.366Z,8.09
2022-10-30T22:25:57.747Z,8.05
2022-10-30T22:28:26.487Z,8.11
2022-10-30T22:31:14.037Z,8.13
2022-10-30T22:33:43.011Z,8.06
2022-10-30T22:36:18.832Z,8.01
2022-10-30T22:38:48.168Z,7.96
2022-10-30T22:41:18.623Z,7.91
2022-10-30T22:44:07.882Z,7.89
2022-10-30T22:46:54.787Z,7.86
2022-10-30T22:49:22.663Z,7.84
2022-10-30T22:51:50.307Z,7.80
2022-10-30T22:54:36.280Z,7.88
2022-10-30T22:57:04.490Z,7.84
2022-10-30T22:59:32.227Z,7.84
2022-10-30T23:02:00.099Z,7.84
2022-10-30T23:04:28.060Z,7.82
2022-10-30T23:06:55.791Z,7.76
2022-10-30T23:09:23.644Z,7.87
2022-10-30T23:11:51.517Z,7.78
2022-10-30T23:14:19.521Z,7.72
2022-10-30T23:16:47.209Z,7.69
2022-10-30T23:19:15.206Z,7.73
2022-10-30T23:21:42.851Z,7.71
2022-10-30T23:24:10.699Z,7.61
2022-10-30T23:26:38.474Z,7.61
2022-10-30T23:29:06.569Z,7.59
2022-10-30T23:31:39.791Z,7.60
2022-10-30T23:34:10.867Z,7.62
2022-10-30T23:36:38.928Z,7.52
2022-10-30T23:39:09.625Z,7.54
2022-10-30T23:41:37.756Z,7.53
2022-10-30T23:44:10.684Z,7.55
2022-10-30T23:46:38.906Z,7.64
2022-10-30T23:49:07.002Z,7.62
2022-10-30T23:51:34.721Z,7.55
2022-10-30T23:54:03.164Z,7.48
2022-10-30T23:56:31.257Z,7.41
2022-10-30T23:59:00.300Z,7.36
